CheckWX is a tool to help pilots better visualize weather data.  It is not intended as a substitute for an official pre-flight weather briefing.

08:14:32 UTC

KDBN METAR
W H 'bud' Barron Airport
Dublin, Georgia, USA
Current

20 mins ago

KDBN 220755Z AUTO 00000KT M1/4SM FG OVC001 13/12 A3012 RMK AO2
Observed
Feb-22 @ 07:55 UTC
Visibility
1/4 SM
Flight Rules
LIFR
Conditions
Fog
Cloud Levels
  • Overcast at 100' AGL
Temperature
13°C / 55°F
Dewpoint
12°C / 54°F
Humidity
94%
Altimeter
30.12" Hg
Pressure
1020.02 hPa
Previous

40 mins ago

KDBN 220735Z AUTO 00000KT 1/4SM FG OVC001 13/12 A3012 RMK AO2
Observed
Feb-22 @ 07:35 UTC
Visibility
1/4 SM
Flight Rules
LIFR
Conditions
Fog
Cloud Levels
  • Overcast at 100' AGL
Temperature
13°C / 55°F
Dewpoint
12°C / 54°F
Humidity
94%
Altimeter
30.12" Hg
Pressure
1020.02 hPa
Previous

60 mins ago

KDBN 220715Z AUTO 00000KT 1/4SM FG OVC001 13/13 A3012 RMK AO2
Observed
Feb-22 @ 07:15 UTC
Visibility
1/4 SM
Flight Rules
LIFR
Conditions
Fog
Cloud Levels
  • Overcast at 100' AGL
Temperature
13°C / 55°F
Dewpoint
13°C / 55°F
Humidity
100%
Altimeter
30.12" Hg
Pressure
1020.02 hPa